Accueil
METAR-TAF:

METAR-TAF

Aéroports :

Rosecrans Memorial Airport

Saint Joseph, Missouri, États-Unis

latitude: 39-46-05N, longitude: 094-54-33W, altitude: 251 m

Observation

Le bulletin a été fait il y a 1 heure et 8 minutes, à 05:53 UTC
Vent calme
Température 20°C
Humidité 94%
Pression 1021 hPa
Visibilité: 14.5 km
Quelques nuages à une hauteur de 6500 ft
Nuages fragmentés à une hauteur de 9000 ft

METAR: KSTJ 210553Z AUTO 00000KT 9SM FEW065 BKN090 20/19 A3014 RMK AO2 SLP199 T02000189 10244 20189 402500189 51007

Heure: 02:01 (07:01 UTC)

Prévision

Le bulletin a été fait il y a 1 heure et 41 minutes, à 05:20 UTC
Prévision valable du 21 à 06 UTC au 22 à 06 UTC
Vent 5 kt de est/nord-est
Visibilité: 10 km
Ciel couvert à une hauteur de 6000 ft

TAF: KSTJ 210520Z 2106/2206 07005KT P6SM OVC060

Observations et prévisions météorologiques de plus de 4000 aéroports (messages METAR et TAF).

Les stations disponibles sont représentées par des disques jaunes et rouges sur la carte.

Passer la souris dessus pour voir le nom de la station.

Cliquer dessus pour voir les observations et prévisions météorologiques.

Pour changer de carte: cliquez sur les boutons verts avec une croix noire pour zoomer, sur le bouton vert avec un tiret pour effectuer un zoom arrière, ou sur les flèches vertes pour les cartes adjacentes.


METAR-TAF: